createdAt,value
2023-05-25T00:01:13.485Z,98798.7
2023-05-25T00:07:30.222Z,98801
2023-05-25T00:13:08.364Z,98803.4
2023-05-25T00:19:05.901Z,98801.9
2023-05-25T00:24:47.318Z,98804.8
2023-05-25T00:30:22.532Z,98800.2
2023-05-25T00:35:57.837Z,98799.4
2023-05-25T00:41:33.344Z,98800.3
2023-05-25T00:47:10.776Z,98797.4
2023-05-25T00:52:46.399Z,98794.2
2023-05-25T00:58:22.487Z,98798.6
2023-05-25T01:03:58.459Z,98794.6
2023-05-25T01:09:36.182Z,98793.8
2023-05-25T01:15:14.421Z,98799.7
2023-05-25T01:20:53.425Z,98800
2023-05-25T01:26:35.322Z,98797.6
2023-05-25T01:32:28.292Z,98793.9
2023-05-25T01:38:12.676Z,98791.5
2023-05-25T01:43:58.136Z,98783
2023-05-25T01:49:52.471Z,98783
2023-05-25T01:55:28.963Z,98787.5
2023-05-25T02:01:04.977Z,98788
2023-05-25T02:06:41.312Z,98782.5
2023-05-25T02:12:16.231Z,98791.4
2023-05-25T02:17:56.305Z,98788.9
2023-05-25T02:23:32.141Z,98788
2023-05-25T02:29:09.691Z,98786
2023-05-25T02:34:58.340Z,98785.2
2023-05-25T02:40:34.833Z,98787.8
2023-05-25T02:46:21.003Z,98786.7
2023-05-25T02:52:29.613Z,98777.5
2023-05-25T02:58:15.958Z,98768.7
2023-05-25T03:04:15.588Z,98767.6
2023-05-25T03:10:11.153Z,98766.2
2023-05-25T03:15:54.083Z,98765.9
2023-05-25T03:21:37.626Z,98759
2023-05-25T03:27:32.614Z,98749.1
2023-05-25T03:33:10.051Z,98745.1
2023-05-25T03:38:46.140Z,98746.4
2023-05-25T03:44:41.853Z,98739.5
2023-05-25T03:50:27.664Z,98745.9
2023-05-25T03:56:02.738Z,98744.7
2023-05-25T04:01:44.546Z,98748
2023-05-25T04:07:27.053Z,98742.5
2023-05-25T04:13:10.448Z,98735.5
2023-05-25T04:19:13.034Z,98726.2
2023-05-25T04:25:22.082Z,98723.2
2023-05-25T04:31:04.935Z,98726.8
2023-05-25T04:36:51.305Z,98726.9
2023-05-25T04:42:27.041Z,98730.8
2023-05-25T04:48:06.329Z,98725.9
2023-05-25T04:53:42.360Z,98725.3
2023-05-25T04:59:18.141Z,98729.5
2023-05-25T05:04:56.700Z,98736.7
2023-05-25T05:10:33.139Z,98736.7
2023-05-25T05:16:09.496Z,98735.4
2023-05-25T05:21:45.266Z,98743
2023-05-25T05:27:21.129Z,98748
2023-05-25T05:32:58.067Z,98745.9
2023-05-25T05:38:59.499Z,98737.8
2023-05-25T05:44:49.486Z,98735.2
2023-05-25T05:50:28.329Z,98738
2023-05-25T05:56:04.213Z,98734.3
2023-05-25T06:01:41.345Z,98729.5
2023-05-25T06:07:20.573Z,98732.7
2023-05-25T06:12:56.228Z,98734.5
2023-05-25T06:18:35.700Z,98734.1
2023-05-25T06:24:12.819Z,98732.2
2023-05-25T06:29:49.028Z,98723.9
2023-05-25T06:35:24.987Z,98726.2
2023-05-25T06:41:00.254Z,98724.5
2023-05-25T06:46:36.356Z,98725.9
2023-05-25T06:52:17.434Z,98732.1
2023-05-25T06:58:01.900Z,98727.1
2023-05-25T07:03:53.705Z,98733.7
2023-05-25T07:09:30.011Z,98732.7
2023-05-25T07:15:05.723Z,98740
2023-05-25T07:20:43.583Z,98741.4
2023-05-25T07:26:20.246Z,98739.1
2023-05-25T07:31:56.566Z,98734.8
2023-05-25T07:37:32.334Z,98746.2
2023-05-25T07:43:08.998Z,98749.2
2023-05-25T07:48:43.868Z,98754.9
2023-05-25T07:54:19.664Z,98755.9
2023-05-25T07:59:56.532Z,98753.7
2023-05-25T08:05:36.193Z,98750.3
2023-05-25T08:11:11.907Z,98747.7
2023-05-25T08:16:58.196Z,98746.8
2023-05-25T08:22:34.677Z,98736.9
2023-05-25T08:29:34.967Z,98735.7
2023-05-25T08:35:28.336Z,98735.4
2023-05-25T08:41:05.332Z,98729.9
2023-05-25T08:46:42.386Z,98735.9
2023-05-25T08:52:18.757Z,98733.5
2023-05-25T08:57:56.025Z,98727.9
2023-05-25T09:03:42.311Z,98733.5
2023-05-25T09:09:20.177Z,98727.1
2023-05-25T09:14:59.511Z,98723.9
2023-05-25T09:20:35.790Z,98728.8
2023-05-25T09:26:22.767Z,98724.5
2023-05-25T09:31:58.652Z,98721.5
2023-05-25T09:37:35.737Z,98718.2
2023-05-25T09:43:25.292Z,98717.2
2023-05-25T09:49:57.919Z,98705.7
2023-05-25T09:56:11.774Z,98703.6
2023-05-25T10:01:57.989Z,98697.5
2023-05-25T10:07:42.929Z,98690.1
2023-05-25T10:13:19.058Z,98684.2
2023-05-25T10:18:55.096Z,98691.3
2023-05-25T10:24:30.970Z,98690.7
2023-05-25T10:30:07.651Z,98683.4
2023-05-25T10:36:11.721Z,98679.3
2023-05-25T10:41:49.608Z,98670.4
2023-05-25T10:47:25.720Z,98665
2023-05-25T10:53:03.843Z,98666.1
2023-05-25T10:58:39.489Z,98658.1
2023-05-25T11:04:15.761Z,98652.3
2023-05-25T11:10:09.289Z,98646.8
2023-05-25T11:15:46.082Z,98654.2
2023-05-25T11:21:30.094Z,98652.5
2023-05-25T11:27:05.218Z,98653.8
2023-05-25T11:32:41.025Z,98649.7
2023-05-25T11:38:25.718Z,98643.9
2023-05-25T11:44:01.355Z,98650.5
2023-05-25T11:49:40.511Z,98644.3
2023-05-25T11:55:20.252Z,98646.1
2023-05-25T12:00:56.672Z,98641
2023-05-25T12:06:32.538Z,98639.1
2023-05-25T12:12:09.266Z,98629.8
2023-05-25T12:17:45.656Z,98629.7
2023-05-25T12:23:35.513Z,98628.3
2023-05-25T12:29:11.345Z,98618
2023-05-25T12:35:17.820Z,98619.8
2023-05-25T12:40:53.277Z,98622.9
2023-05-25T12:46:29.109Z,98609.7
2023-05-25T12:52:05.450Z,98607.7
2023-05-25T12:57:41.254Z,98609.9
2023-05-25T13:03:17.706Z,98612
2023-05-25T13:08:53.637Z,98610.2
2023-05-25T13:14:29.469Z,98608.2
2023-05-25T13:20:05.290Z,98618.5
2023-05-25T13:25:41.561Z,98620.8
2023-05-25T13:31:21.062Z,98615.3
2023-05-25T13:36:57.092Z,98611.3
2023-05-25T13:42:42.617Z,98607.8
2023-05-25T13:48:21.017Z,98601.8
2023-05-25T13:54:01.125Z,98599.4
2023-05-25T13:59:45.490Z,98598.2
2023-05-25T14:05:20.935Z,98604.2
2023-05-25T14:10:56.724Z,98597.9
2023-05-25T14:16:32.592Z,98595.2
2023-05-25T14:22:15.570Z,98593.9
2023-05-25T14:27:52.992Z,98600.8
2023-05-25T14:33:48.390Z,98608.7
2023-05-25T14:39:25.082Z,98607.3
2023-05-25T14:45:00.253Z,98615.2
2023-05-25T14:50:36.008Z,98616.9
2023-05-25T14:56:11.947Z,98622.1
2023-05-25T15:02:08.374Z,98620.1
2023-05-25T15:07:43.905Z,98629.4
2023-05-25T15:13:23.020Z,98634
2023-05-25T15:19:18.457Z,98639.6
2023-05-25T15:24:54.086Z,98654.3
2023-05-25T15:30:37.756Z,98662
2023-05-25T15:36:16.293Z,98666.1
2023-05-25T15:41:52.865Z,98678.3
2023-05-25T15:47:28.160Z,98688.8
2023-05-25T15:53:04.546Z,98698.4
2023-05-25T15:58:39.982Z,98707.2
2023-05-25T16:04:16.109Z,98716.4
2023-05-25T16:10:02.307Z,98738.2
2023-05-25T16:15:37.791Z,98755.8
2023-05-25T16:21:12.808Z,98772
2023-05-25T16:26:48.122Z,98770.5
2023-05-25T16:32:24.180Z,98775.9
2023-05-25T16:37:59.637Z,98778.6
2023-05-25T16:43:41.458Z,98774.6
2023-05-25T16:49:17.448Z,98790.7
2023-05-25T16:54:59.554Z,98796
2023-05-25T17:00:39.354Z,98800.4
2023-05-25T17:06:18.798Z,98806.3
2023-05-25T17:11:57.316Z,98809.9
2023-05-25T17:17:33.747Z,98819.3
2023-05-25T17:23:10.088Z,98816.6
2023-05-25T17:28:46.987Z,98805.5
2023-05-25T17:34:22.794Z,98798.4
2023-05-25T17:39:58.151Z,98790.8
2023-05-25T17:45:34.928Z,98796
2023-05-25T17:51:12.060Z,98802
2023-05-25T17:56:56.135Z,98809
2023-05-25T18:02:32.235Z,98795.9
2023-05-25T18:08:18.749Z,98785.8
2023-05-25T18:14:21.696Z,98782.2
2023-05-25T18:20:01.379Z,98781.9
2023-05-25T18:25:37.610Z,98775.4
2023-05-25T18:31:13.517Z,98763.6
2023-05-25T18:37:03.536Z,98749.1
2023-05-25T18:42:39.988Z,98742.5
2023-05-25T18:48:19.590Z,98741.1
2023-05-25T18:53:55.481Z,98732.4
2023-05-25T18:59:30.948Z,98729.3
2023-05-25T19:05:07.359Z,98714.3
2023-05-25T19:10:46.630Z,98697.2
2023-05-25T19:16:22.745Z,98674.2
2023-05-25T19:22:01.852Z,98676.6
2023-05-25T19:27:38.544Z,98684.4
2023-05-25T19:33:14.689Z,98686.1
2023-05-25T19:38:51.496Z,98678.4
2023-05-25T19:44:26.899Z,98677.7
2023-05-25T19:50:02.558Z,98669.8
2023-05-25T19:55:38.366Z,98684
2023-05-25T20:01:15.436Z,98688.3
2023-05-25T20:06:51.448Z,98679.6
2023-05-25T20:12:28.026Z,98700.5
2023-05-25T20:18:05.488Z,98728.3
2023-05-25T20:23:41.238Z,98736.5
2023-05-25T20:29:16.213Z,98730
2023-05-25T20:34:52.235Z,98736
